Famatina, Argentina
Current Conditions -  °F | °C
As of 9:00 PM on Saturday 22 Nov 2014 (Local Time) from SANT Reporting Station
Scattered Clouds Scattered Clouds  
Wind Chill: 79°   Ceiling: Unl
Heat Index: 80°   Visibility: 6mi
Dew Point: 59°   Wind: 12mph
Humidity: 51%   Direction: 360°N
Pressure: 29.91"   Gusts: NA
Location:  28.92°S, 67.52°W
Report Text: SANT 230000Z 36010KT 9999 SCT050 SCT10026/15 Q1013
Loading
Personal Weather Stations






























Interactive Weather Map New forecast layout! Learn more

10-Day Weather Forecast

Advertisements
Track Severe Weather on mobile